createdAt,value
2024-05-09T00:02:02.332Z,101164.59
2024-05-09T00:04:33.052Z,101163.42
2024-05-09T00:07:04.177Z,101164.27
2024-05-09T00:09:36.340Z,101162.92
2024-05-09T00:12:09.254Z,101169.99
2024-05-09T00:14:45.015Z,101164.22
2024-05-09T00:17:16.834Z,101162.89
2024-05-09T00:19:47.129Z,101165.21
2024-05-09T00:22:20.961Z,101162.30
2024-05-09T00:24:51.439Z,101163.81
2024-05-09T00:27:25.420Z,101165.92
2024-05-09T00:29:56.446Z,101166.28
2024-05-09T00:32:28.931Z,101161.91
2024-05-09T00:35:00.081Z,101159.84
2024-05-09T00:37:30.886Z,101162.63
2024-05-09T00:40:03.600Z,101158.67
2024-05-09T00:42:37.307Z,101161.59
2024-05-09T00:45:07.844Z,101158.69
2024-05-09T00:47:38.329Z,101153.22
2024-05-09T00:50:15.977Z,101156.29
2024-05-09T00:52:45.863Z,101149.51
2024-05-09T00:55:18.615Z,101146.55
2024-05-09T00:57:51.049Z,101143.58
2024-05-09T01:00:31.411Z,101144.16
2024-05-09T01:02:59.649Z,101148.50
2024-05-09T01:05:43.209Z,101143.38
2024-05-09T01:08:16.620Z,101148.75
2024-05-09T01:10:48.663Z,101150.58
2024-05-09T01:13:20.062Z,101154.36
2024-05-09T01:15:52.792Z,101154.48
2024-05-09T01:18:25.591Z,101154.35
2024-05-09T01:20:56.212Z,101150.13
2024-05-09T01:23:29.059Z,101152.81
2024-05-09T01:25:59.903Z,101151.34
2024-05-09T01:28:30.178Z,101146.47
2024-05-09T01:31:02.118Z,101151.04
2024-05-09T01:33:33.674Z,101152.92
2024-05-09T01:36:08.862Z,101152.64
2024-05-09T01:38:44.299Z,101151.84
2024-05-09T01:41:15.838Z,101152.41
2024-05-09T01:43:45.905Z,101151.76
2024-05-09T01:46:19.347Z,101154.15
2024-05-09T01:48:53.960Z,101154.26
2024-05-09T01:51:25.698Z,101155.63
2024-05-09T01:53:57.261Z,101160.23
2024-05-09T01:56:34.336Z,101160.38
2024-05-09T01:59:06.066Z,101164.42
2024-05-09T02:01:55.834Z,101166.59
2024-05-09T02:04:14.068Z,101171.15
2024-05-09T02:06:46.184Z,101170.91
2024-05-09T02:09:26.158Z,101173.14
2024-05-09T02:11:56.078Z,101174.95
2024-05-09T02:14:26.951Z,101164.81
2024-05-09T02:16:57.597Z,101173.70
2024-05-09T02:19:28.498Z,101169.87
2024-05-09T02:21:58.143Z,101167.30
2024-05-09T02:24:30.365Z,101166.44
2024-05-09T02:27:03.791Z,101171.44
2024-05-09T02:29:33.676Z,101164.27
2024-05-09T02:32:07.591Z,101164.67
2024-05-09T02:34:37.816Z,101164.38
2024-05-09T02:37:08.474Z,101160.66
2024-05-09T02:39:39.121Z,101165.03
2024-05-09T02:42:10.995Z,101157.98
2024-05-09T02:44:43.253Z,101156.36
2024-05-09T02:47:13.951Z,101159.64
2024-05-09T02:49:46.132Z,101163.81
2024-05-09T02:52:22.928Z,101160.08
2024-05-09T02:54:54.017Z,101164.52
2024-05-09T02:57:24.187Z,101166.17
2024-05-09T02:59:55.706Z,101164.66
2024-05-09T03:02:27.730Z,101164.26
2024-05-09T03:04:58.909Z,101164.72
2024-05-09T03:07:30.201Z,101163.00
2024-05-09T03:10:07.365Z,101163.76
2024-05-09T03:12:39.347Z,101171.09
2024-05-09T03:15:12.431Z,101174.30
2024-05-09T03:17:43.181Z,101174.30
2024-05-09T03:20:23.289Z,101171.14
2024-05-09T03:22:49.474Z,101177.23
2024-05-09T03:25:18.345Z,101169.47
2024-05-09T03:27:50.901Z,101175.66
2024-05-09T03:30:30.919Z,101179.14
2024-05-09T03:32:55.100Z,101184.88
2024-05-09T03:35:30.540Z,101178.73
2024-05-09T03:38:00.879Z,101189.12
2024-05-09T03:40:32.923Z,101189.92
2024-05-09T03:43:04.365Z,101182.66
2024-05-09T03:45:36.307Z,101185.19
2024-05-09T03:48:09.120Z,101169.06
2024-05-09T03:50:40.367Z,101169.06
2024-05-09T03:53:14.875Z,101181.05
2024-05-09T03:55:46.140Z,101181.82
2024-05-09T03:58:16.920Z,101174.97
2024-05-09T04:00:46.933Z,101179.02
2024-05-09T04:03:19.317Z,101179.02
2024-05-09T04:05:51.505Z,101183.84
2024-05-09T04:08:21.764Z,101179.80
2024-05-09T04:10:52.203Z,101188.42
2024-05-09T04:13:23.715Z,101187.11
2024-05-09T04:15:53.796Z,101195.09
2024-05-09T04:18:25.228Z,101191.50
2024-05-09T04:20:56.961Z,101189.58
2024-05-09T04:23:29.330Z,101181.99
2024-05-09T04:25:58.507Z,101185.81
2024-05-09T04:28:28.276Z,101184.78
2024-05-09T04:30:59.919Z,101179.59
2024-05-09T04:33:32.789Z,101173.58
2024-05-09T04:36:06.277Z,101181.74
2024-05-09T04:38:39.139Z,101177.31
2024-05-09T04:41:09.953Z,101181.70
2024-05-09T04:43:40.987Z,101180.05
2024-05-09T04:46:10.987Z,101182.23
2024-05-09T04:48:41.259Z,101183.89
2024-05-09T04:51:12.645Z,101181.61
2024-05-09T04:53:46.137Z,101178.59
2024-05-09T04:56:18.832Z,101178.22
2024-05-09T04:58:51.816Z,101172.67
2024-05-09T05:01:24.520Z,101174.05
2024-05-09T05:03:57.253Z,101163.65
2024-05-09T05:06:45.926Z,101167.81
2024-05-09T05:09:17.633Z,101169.75
2024-05-09T05:11:53.166Z,101165.09
2024-05-09T05:14:26.583Z,101161.38
2024-05-09T05:16:58.460Z,101156.48
2024-05-09T05:19:31.091Z,101166.48
2024-05-09T05:22:01.490Z,101167.03
2024-05-09T05:24:34.383Z,101164.73
2024-05-09T05:27:04.602Z,101159.71
2024-05-09T05:29:34.958Z,101162.84
2024-05-09T05:32:08.687Z,101156.91
2024-05-09T05:34:42.121Z,101151.13
2024-05-09T05:37:13.982Z,101151.13
2024-05-09T05:39:44.279Z,101162.05
2024-05-09T05:42:17.423Z,101165.06
2024-05-09T05:44:48.244Z,101165.06
2024-05-09T05:47:19.640Z,101165.08
2024-05-09T05:49:49.675Z,101165.59
2024-05-09T05:52:20.368Z,101167.86
2024-05-09T05:54:52.048Z,101167.13
2024-05-09T05:57:22.959Z,101161.73
2024-05-09T05:59:55.619Z,101152.85
2024-05-09T06:02:26.863Z,101152.85
2024-05-09T06:04:58.612Z,101159.37
2024-05-09T06:07:31.226Z,101162.62
2024-05-09T06:10:09.220Z,101161.28
2024-05-09T06:12:41.156Z,101165.36
2024-05-09T06:15:12.067Z,101169.53
2024-05-09T06:17:45.116Z,101173.97
2024-05-09T06:20:20.799Z,101165.16
2024-05-09T06:22:47.803Z,101175.38
2024-05-09T06:25:17.802Z,101175.38
2024-05-09T06:27:50.252Z,101173.27
2024-05-09T06:30:30.063Z,101178.54
2024-05-09T06:32:59.586Z,101181.45
2024-05-09T06:35:35.566Z,101181.45
2024-05-09T06:38:11.154Z,101178.63
2024-05-09T06:40:43.872Z,101159.02
2024-05-09T06:43:18.717Z,101159.02
2024-05-09T06:45:52.966Z,101176.83
2024-05-09T06:48:24.987Z,101179.52
2024-05-09T06:50:55.574Z,101163.23
2024-05-09T06:53:28.172Z,101163.23
2024-05-09T06:55:59.239Z,101172.97
2024-05-09T06:58:31.048Z,101174.18
2024-05-09T07:01:04.322Z,101168.64
2024-05-09T07:03:36.298Z,101168.64
2024-05-09T07:06:09.225Z,101171.06
2024-05-09T07:08:42.269Z,101171.67
2024-05-09T07:11:12.412Z,101166.86
2024-05-09T07:13:44.203Z,101172.23
2024-05-09T07:16:16.092Z,101174.77
2024-05-09T07:18:48.369Z,101165.41
2024-05-09T07:21:20.604Z,101161.16
2024-05-09T07:23:51.156Z,101166.58
2024-05-09T07:26:26.766Z,101145.94
2024-05-09T07:29:00.116Z,101145.94
2024-05-09T07:31:31.772Z,101161.91
2024-05-09T07:34:03.094Z,101143.59
2024-05-09T07:36:33.175Z,101143.59
2024-05-09T07:39:07.445Z,101167.27
2024-05-09T07:41:38.381Z,101165.36
2024-05-09T07:44:11.777Z,101167.77
2024-05-09T07:47:47.943Z,101160.03
2024-05-09T07:51:31.286Z,101167.28
2024-05-09T07:53:20.951Z,101166.05
2024-05-09T07:54:26.802Z,101137.89
2024-05-09T07:57:00.694Z,101137.89
2024-05-09T07:59:37.019Z,101152.85
2024-05-09T08:02:08.077Z,101145.99
2024-05-09T08:04:52.186Z,101145.36
2024-05-09T08:07:26.595Z,101154.73
2024-05-09T08:09:58.765Z,101152.31
2024-05-09T08:12:28.706Z,101156.11
2024-05-09T08:15:01.105Z,101150.49
2024-05-09T08:17:31.215Z,101148.77
2024-05-09T08:20:03.677Z,101143.92
2024-05-09T08:22:39.386Z,101141.22
2024-05-09T08:25:13.454Z,101143.16
2024-05-09T08:27:44.314Z,101143.62
2024-05-09T08:30:21.982Z,101143.32
2024-05-09T08:32:48.349Z,101144.41
2024-05-09T08:35:19.530Z,101144.20
2024-05-09T08:37:53.718Z,101147.69
2024-05-09T08:40:30.891Z,101145.42
2024-05-09T08:42:58.570Z,101144.91
2024-05-09T08:45:30.246Z,101137.88
2024-05-09T08:48:12.710Z,101137.12
2024-05-09T08:50:44.995Z,101134.70
2024-05-09T08:53:16.926Z,101143.23
2024-05-09T08:56:03.347Z,101133.53
2024-05-09T08:58:36.688Z,101132.67
2024-05-09T09:01:08.846Z,101131.33
2024-05-09T09:03:41.219Z,101131.83
2024-05-09T09:06:20.189Z,101134.80
2024-05-09T09:08:50.480Z,101137.58
2024-05-09T09:11:22.368Z,101141.22
2024-05-09T09:13:57.362Z,101138.64
2024-05-09T09:16:37.671Z,101145.55
2024-05-09T09:19:07.965Z,101139.50
2024-05-09T09:21:42.871Z,101137.64
2024-05-09T09:24:15.572Z,101136.61
2024-05-09T09:26:47.461Z,101139.20
2024-05-09T09:29:20.122Z,101136.52
2024-05-09T09:32:04.663Z,101141.02
2024-05-09T09:34:36.594Z,101145.30
2024-05-09T09:37:14.143Z,101139.25
2024-05-09T09:39:49.029Z,101135.20
2024-05-09T09:42:19.046Z,101124.21
2024-05-09T09:45:01.948Z,101123.91
2024-05-09T09:47:26.620Z,101133.00
2024-05-09T09:49:58.521Z,101139.95
2024-05-09T09:52:29.693Z,101138.11
2024-05-09T09:55:02.031Z,101139.23
2024-05-09T09:57:38.345Z,101130.42
2024-05-09T10:00:11.933Z,101124.83
2024-05-09T10:02:43.883Z,101126.38
2024-05-09T10:05:18.616Z,101122.81
2024-05-09T10:07:50.699Z,101121.02
2024-05-09T10:10:32.620Z,101122.59
2024-05-09T10:13:09.666Z,101120.72
2024-05-09T10:15:49.603Z,101117.95
2024-05-09T10:18:28.259Z,101114.61
2024-05-09T10:20:56.500Z,101113.91
2024-05-09T10:23:34.617Z,101112.09
2024-05-09T10:26:06.361Z,101113.14
2024-05-09T10:28:39.638Z,101111.52
2024-05-09T10:31:11.908Z,101101.89
2024-05-09T10:33:52.404Z,101093.98
2024-05-09T10:36:25.469Z,101100.69
2024-05-09T10:38:56.116Z,101088.50
2024-05-09T10:41:31.553Z,101093.27
2024-05-09T10:44:04.042Z,101099.25
2024-05-09T10:46:34.177Z,101096.95
2024-05-09T10:49:07.895Z,101095.73
2024-05-09T10:51:42.230Z,101091.66
2024-05-09T10:54:13.935Z,101094.13
2024-05-09T10:56:45.652Z,101084.02
2024-05-09T10:59:15.733Z,101090.38
2024-05-09T11:01:51.832Z,101079.06
2024-05-09T11:04:24.037Z,101078.95
2024-05-09T11:06:56.973Z,101082.62
2024-05-09T11:09:27.387Z,101079.78
2024-05-09T11:11:58.268Z,101079.01
2024-05-09T11:14:29.645Z,101074.70
2024-05-09T11:17:07.567Z,101067.16
2024-05-09T11:19:44.656Z,101072.42
2024-05-09T11:22:15.112Z,101068.00
2024-05-09T11:24:45.163Z,101168.16
2024-05-09T11:27:15.975Z,101056.77
2024-05-09T11:29:47.614Z,101060.47
2024-05-09T11:32:22.548Z,101057.58
2024-05-09T11:35:03.366Z,101049.34
2024-05-09T11:37:53.224Z,101054.68
2024-05-09T11:40:25.902Z,101056.31
2024-05-09T11:42:59.126Z,101046.50
2024-05-09T11:45:37.127Z,101041.03
2024-05-09T11:48:27.461Z,101043.84
2024-05-09T11:54:36.740Z,101039.03
2024-05-09T11:57:08.722Z,101027.03
2024-05-09T11:59:41.015Z,101029.02
2024-05-09T12:02:11.581Z,101037.13
2024-05-09T12:04:46.688Z,101025.55
2024-05-09T12:07:21.680Z,101026.95
2024-05-09T12:09:55.412Z,101023.73
2024-05-09T12:12:28.613Z,101023.55
2024-05-09T12:14:58.586Z,101025.77
2024-05-09T12:17:30.984Z,101026.11
2024-05-09T12:20:00.889Z,101027.03
2024-05-09T12:22:31.941Z,101030.83
2024-05-09T12:25:03.850Z,101024.95
2024-05-09T12:27:36.698Z,101023.81
2024-05-09T12:30:11.538Z,101016.53
2024-05-09T12:32:40.916Z,101014.26
2024-05-09T12:35:13.996Z,101006.97
2024-05-09T12:37:44.864Z,101008.83
2024-05-09T12:40:26.551Z,100995.04
2024-05-09T12:42:52.585Z,100995.04
2024-05-09T12:45:23.500Z,101008.16
2024-05-09T12:47:55.284Z,101013.67
2024-05-09T12:50:33.248Z,101009.13
2024-05-09T12:53:02.169Z,101009.60
2024-05-09T12:55:44.482Z,101001.78
2024-05-09T12:58:09.233Z,100995.16
2024-05-09T13:00:43.090Z,101000.10
2024-05-09T13:03:17.635Z,100993.80
2024-05-09T13:05:50.416Z,100990.08
2024-05-09T13:08:26.015Z,100988.58
2024-05-09T13:10:57.592Z,100988.80
2024-05-09T13:13:29.145Z,100985.06
2024-05-09T13:16:02.457Z,100973.72
2024-05-09T13:18:43.844Z,100981.31
2024-05-09T13:21:13.681Z,100978.94
2024-05-09T13:23:44.076Z,100975.38
2024-05-09T13:26:15.844Z,100985.81
2024-05-09T13:28:47.455Z,100976.94
2024-05-09T13:31:20.698Z,100969.75
2024-05-09T13:33:52.713Z,100969.44
2024-05-09T13:36:23.153Z,100964.63
2024-05-09T13:38:55.416Z,100968.80
2024-05-09T13:41:27.029Z,100968.80
2024-05-09T13:43:58.448Z,100967.95
2024-05-09T13:46:28.453Z,100957.00
2024-05-09T13:49:01.414Z,100956.33
2024-05-09T13:51:31.477Z,100949.55
2024-05-09T13:54:03.648Z,100942.71
2024-05-09T13:56:34.153Z,100944.50
2024-05-09T13:59:09.775Z,100941.81
2024-05-09T14:01:40.573Z,100943.98
2024-05-09T14:04:16.856Z,100947.63
2024-05-09T14:06:47.223Z,100937.94
2024-05-09T14:09:18.992Z,100942.17
2024-05-09T14:11:49.218Z,100940.12
2024-05-09T14:14:21.341Z,100934.59
2024-05-09T14:16:53.862Z,100928.19
2024-05-09T14:19:27.631Z,100925.81
2024-05-09T14:21:58.004Z,100922.49
2024-05-09T14:24:28.347Z,100930.39
2024-05-09T14:26:58.476Z,100922.27
2024-05-09T14:29:29.459Z,100923.66
2024-05-09T14:32:00.409Z,100923.81
2024-05-09T14:34:32.748Z,100916.86
2024-05-09T14:37:05.715Z,100912.50
2024-05-09T14:39:39.521Z,100910.32
2024-05-09T14:42:12.631Z,100914.58
2024-05-09T14:44:43.714Z,100907.02
2024-05-09T14:47:16.400Z,100903.12
2024-05-09T14:49:46.613Z,100891.98
2024-05-09T14:52:23.727Z,100895.52
2024-05-09T14:55:00.227Z,100897.86
2024-05-09T14:57:30.265Z,100889.95
2024-05-09T15:00:00.993Z,100888.68
2024-05-09T15:02:33.864Z,100888.19
2024-05-09T15:05:07.536Z,100884.17
2024-05-09T15:07:39.884Z,100886.45
2024-05-09T15:10:26.221Z,100880.46
2024-05-09T15:12:48.964Z,100878.08
2024-05-09T15:15:20.991Z,100868.91
2024-05-09T15:17:59.499Z,100870.95
2024-05-09T15:20:34.822Z,100870.81
2024-05-09T15:23:01.524Z,100872.36
2024-05-09T15:25:34.018Z,100870.13
2024-05-09T15:28:05.005Z,100870.97
2024-05-09T15:30:39.100Z,100858.22
2024-05-09T15:33:12.851Z,100864.91
2024-05-09T15:35:46.950Z,100859.80
2024-05-09T15:38:19.953Z,100856.72
2024-05-09T15:40:52.122Z,100854.92
2024-05-09T15:43:22.243Z,100854.00
2024-05-09T15:45:53.997Z,100845.78
2024-05-09T15:48:26.444Z,100841.32
2024-05-09T15:51:00.991Z,100847.47
2024-05-09T15:53:31.494Z,100844.38
2024-05-09T15:56:02.796Z,100839.68
2024-05-09T15:58:35.174Z,100839.28
2024-05-09T16:01:06.434Z,100838.01
2024-05-09T16:03:38.142Z,100835.56
2024-05-09T16:06:09.505Z,100837.19
2024-05-09T16:08:39.551Z,100834.35
2024-05-09T16:11:10.486Z,100832.71
2024-05-09T16:13:40.531Z,100828.38
2024-05-09T16:16:10.965Z,100827.04
2024-05-09T16:18:40.675Z,100827.11
2024-05-09T16:21:10.623Z,100826.34
2024-05-09T16:23:40.692Z,100821.67
2024-05-09T16:26:10.831Z,100823.41
2024-05-09T16:28:43.059Z,100816.59
2024-05-09T16:31:14.016Z,100812.39
2024-05-09T16:33:44.457Z,100820.04
2024-05-09T16:36:17.030Z,100813.63
2024-05-09T16:38:48.520Z,100813.63
2024-05-09T16:41:20.547Z,100815.86
2024-05-09T16:43:51.194Z,100816.17
2024-05-09T16:46:23.133Z,100809.33
2024-05-09T16:48:55.826Z,100810.11
2024-05-09T16:51:26.989Z,100815.20
2024-05-09T16:53:56.905Z,100816.26
2024-05-09T16:56:27.227Z,100813.59
2024-05-09T16:58:58.061Z,100816.27
2024-05-09T17:01:29.833Z,100817.70
2024-05-09T17:04:00.982Z,100818.80
2024-05-09T17:06:31.987Z,100812.14
2024-05-09T17:09:08.268Z,100814.77
2024-05-09T17:11:36.453Z,100812.00
2024-05-09T17:14:07.286Z,100818.70
2024-05-09T17:16:38.083Z,100817.03
2024-05-09T17:19:09.980Z,100822.39
2024-05-09T17:21:42.347Z,100821.64
2024-05-09T17:24:15.354Z,100828.02
2024-05-09T17:26:46.038Z,100822.76
2024-05-09T17:29:18.668Z,100827.70
2024-05-09T17:31:54.610Z,100823.09
2024-05-09T17:34:28.941Z,100832.34
2024-05-09T17:37:01.167Z,100832.98
2024-05-09T17:39:32.407Z,100829.61
2024-05-09T17:42:05.561Z,100825.17
2024-05-09T17:44:37.514Z,100827.59
2024-05-09T17:47:08.425Z,100826.63
2024-05-09T17:49:41.752Z,100826.70
2024-05-09T17:52:17.408Z,100825.82
2024-05-09T17:54:54.418Z,100826.36
2024-05-09T17:57:26.571Z,100826.23
2024-05-09T17:59:56.484Z,100831.23
2024-05-09T18:02:30.477Z,100828.83
2024-05-09T18:05:03.204Z,100828.61
2024-05-09T18:07:42.470Z,100834.45
2024-05-09T18:10:19.497Z,100842.53
2024-05-09T18:12:45.875Z,100834.97
2024-05-09T18:15:15.666Z,100833.37
2024-05-09T18:17:45.893Z,100834.86
2024-05-09T18:20:24.220Z,100838.30
2024-05-09T18:22:52.318Z,100830.97
2024-05-09T18:25:27.746Z,100835.85
2024-05-09T18:27:59.863Z,100832.36
2024-05-09T18:30:35.658Z,100832.36
2024-05-09T18:33:07.743Z,100848.43
2024-05-09T18:35:41.280Z,100848.43
2024-05-09T18:38:12.125Z,100854.70
2024-05-09T18:40:43.995Z,100862.12
2024-05-09T18:43:14.235Z,100857.98
2024-05-09T18:45:44.961Z,100857.91
2024-05-09T18:48:17.371Z,100855.59
2024-05-09T18:50:51.261Z,100859.94
2024-05-09T18:53:22.821Z,100861.16
2024-05-09T18:55:55.298Z,100861.16
2024-05-09T18:58:34.503Z,100865.23
2024-05-09T19:01:11.282Z,100870.81
2024-05-09T19:03:50.715Z,100871.56
2024-05-09T19:06:24.628Z,100871.56
2024-05-09T19:12:46.744Z,100858.94
2024-05-09T19:15:19.622Z,100858.94
2024-05-09T19:18:06.394Z,100870.29
2024-05-09T19:20:39.232Z,100884.14
2024-05-09T19:23:14.572Z,100882.03
2024-05-09T19:25:49.294Z,100864.89
2024-05-09T19:28:21.741Z,100886.61
2024-05-09T19:30:54.023Z,100881.71
2024-05-09T19:33:25.016Z,100885.26
2024-05-09T19:35:55.790Z,100885.26
2024-05-09T19:38:26.250Z,100881.87
2024-05-09T19:40:59.288Z,100892.38
2024-05-09T19:43:35.367Z,100891.81
2024-05-09T19:46:08.653Z,100897.10
2024-05-09T19:48:41.827Z,100897.98
2024-05-09T19:51:17.243Z,100894.58
2024-05-09T19:53:50.401Z,100894.31
2024-05-09T19:56:22.031Z,100894.20
2024-05-09T19:58:55.202Z,100894.20
2024-05-09T20:01:31.632Z,100900.53
2024-05-09T20:04:03.786Z,100902.03
2024-05-09T20:06:35.275Z,100902.03
2024-05-09T20:09:05.900Z,100907.30
2024-05-09T20:11:41.816Z,100903.79
2024-05-09T20:14:13.651Z,100907.55
2024-05-09T20:16:46.378Z,100900.83
2024-05-09T20:19:16.602Z,100900.83
2024-05-09T20:21:47.222Z,100906.29
2024-05-09T20:24:19.498Z,100896.08
2024-05-09T20:26:52.653Z,100898.80
2024-05-09T20:29:23.383Z,100895.11
2024-05-09T20:31:54.000Z,100895.11
2024-05-09T20:37:15.291Z,100890.43
2024-05-09T20:39:45.655Z,100893.91
2024-05-09T20:42:18.071Z,100894.69
2024-05-09T20:44:48.332Z,100894.69
2024-05-09T20:47:21.024Z,100894.94
2024-05-09T20:49:53.843Z,100896.24
2024-05-09T20:52:24.188Z,100892.50
2024-05-09T20:54:55.043Z,100896.27
2024-05-09T20:57:26.240Z,100895.87
2024-05-09T21:00:00.015Z,100903.58
2024-05-09T21:02:30.571Z,100903.58
2024-05-09T21:05:01.105Z,100902.63
2024-05-09T21:07:35.985Z,100906.35
2024-05-09T21:10:15.248Z,100900.55
2024-05-09T21:12:42.099Z,100898.40
2024-05-09T21:15:12.041Z,100903.86
2024-05-09T21:17:44.252Z,100902.63
2024-05-09T21:20:20.310Z,100908.53
2024-05-09T21:22:49.521Z,100897.72
2024-05-09T21:25:21.546Z,100897.72
2024-05-09T21:27:54.903Z,100903.06
2024-05-09T21:30:37.063Z,100900.66
2024-05-09T21:33:00.992Z,100901.59
2024-05-09T21:35:34.135Z,100903.25
2024-05-09T21:38:06.024Z,100897.44
2024-05-09T21:40:37.914Z,100896.89
2024-05-09T21:43:10.885Z,100901.06
2024-05-09T21:45:42.928Z,100901.32
2024-05-09T21:48:14.087Z,100898.45
2024-05-09T21:50:46.584Z,100903.48
2024-05-09T21:53:17.244Z,100896.34
2024-05-09T21:55:48.214Z,100894.97
2024-05-09T21:58:19.122Z,100899.14
2024-05-09T22:00:54.179Z,100899.66
2024-05-09T22:03:24.713Z,100895.70
2024-05-09T22:05:55.322Z,100901.29
2024-05-09T22:08:25.668Z,100898.56
2024-05-09T22:10:57.395Z,100899.48
2024-05-09T22:13:29.700Z,100896.00
2024-05-09T22:15:59.459Z,100894.83
2024-05-09T22:18:32.872Z,100896.44
2024-05-09T22:21:05.494Z,100893.34
2024-05-09T22:23:37.102Z,100890.71
2024-05-09T22:26:09.135Z,100896.72
2024-05-09T22:28:41.203Z,100898.77
2024-05-09T22:31:12.199Z,100898.91
2024-05-09T22:33:46.285Z,100898.37
2024-05-09T22:36:15.035Z,100902.59
2024-05-09T22:38:46.077Z,100898.86
2024-05-09T22:41:19.049Z,100900.12
2024-05-09T22:43:49.954Z,100897.95
2024-05-09T22:46:23.906Z,100898.80
2024-05-09T22:48:54.254Z,100901.44
2024-05-09T22:51:24.789Z,100899.93
2024-05-09T22:53:54.932Z,100903.75
2024-05-09T22:56:30.639Z,100898.50
2024-05-09T22:59:02.397Z,100901.26
2024-05-09T23:01:31.545Z,100896.53
2024-05-09T23:04:03.384Z,100898.30
2024-05-09T23:06:33.674Z,100891.58
2024-05-09T23:09:08.201Z,100886.46
2024-05-09T23:11:44.163Z,100884.75
2024-05-09T23:14:15.981Z,100886.92
2024-05-09T23:16:49.600Z,100882.39
2024-05-09T23:19:23.265Z,100884.77
2024-05-09T23:21:58.772Z,100883.81
2024-05-09T23:24:28.966Z,100881.25
2024-05-09T23:27:00.678Z,100875.73
2024-05-09T23:29:32.815Z,100879.94
2024-05-09T23:32:04.444Z,100879.55
2024-05-09T23:34:35.265Z,100872.19
2024-05-09T23:37:04.931Z,100868.22
2024-05-09T23:39:35.236Z,100872.74
2024-05-09T23:42:06.425Z,100873.39
2024-05-09T23:44:37.420Z,100871.81
2024-05-09T23:47:10.596Z,100871.48
2024-05-09T23:49:40.479Z,100868.23
2024-05-09T23:52:13.107Z,100872.69
2024-05-09T23:54:43.638Z,100872.88
2024-05-09T23:57:15.308Z,100871.69
2024-05-09T23:59:46.373Z,100869.12
